sensor_id;sensor_type;location;lat;lon;timestamp;pressure;altitude;pressure_sealevel;temperature
68127;BMP180;54931;52.098;21.006;2022-07-11T00:00:10;100205.20;;;10.68
68127;BMP180;54931;52.098;21.006;2022-07-11T00:02:58;100202.80;;;10.70
68127;BMP180;54931;52.098;21.006;2022-07-11T00:05:26;100204.60;;;10.60
68127;BMP180;54931;52.098;21.006;2022-07-11T00:07:53;100202.80;;;10.60
68127;BMP180;54931;52.098;21.006;2022-07-11T00:10:20;100198.00;;;10.60
68127;BMP180;54931;52.098;21.006;2022-07-11T00:12:48;100199.00;;;10.60
68127;BMP180;54931;52.098;21.006;2022-07-11T00:15:15;100201.20;;;10.60
68127;BMP180;54931;52.098;21.006;2022-07-11T00:17:42;100197.80;;;10.60
68127;BMP180;54931;52.098;21.006;2022-07-11T00:20:10;100197.20;;;10.50
68127;BMP180;54931;52.098;21.006;2022-07-11T00:22:37;100201.60;;;10.50
68127;BMP180;54931;52.098;21.006;2022-07-11T00:25:05;100195.20;;;10.50
68127;BMP180;54931;52.098;21.006;2022-07-11T00:27:32;100195.40;;;10.50
68127;BMP180;54931;52.098;21.006;2022-07-11T00:30:00;100195.40;;;10.40
68127;BMP180;54931;52.098;21.006;2022-07-11T00:32:27;100190.20;;;10.40
68127;BMP180;54931;52.098;21.006;2022-07-11T00:34:54;100190.40;;;10.40
68127;BMP180;54931;52.098;21.006;2022-07-11T00:37:22;100189.60;;;10.40
68127;BMP180;54931;52.098;21.006;2022-07-11T00:39:49;100186.20;;;10.40
68127;BMP180;54931;52.098;21.006;2022-07-11T00:42:17;100188.60;;;10.30
68127;BMP180;54931;52.098;21.006;2022-07-11T00:44:44;100187.80;;;10.30
68127;BMP180;54931;52.098;21.006;2022-07-11T00:47:11;100187.80;;;10.30
68127;BMP180;54931;52.098;21.006;2022-07-11T00:49:38;100184.00;;;10.30
68127;BMP180;54931;52.098;21.006;2022-07-11T00:52:06;100185.80;;;10.30
68127;BMP180;54931;52.098;21.006;2022-07-11T00:54:33;100185.20;;;10.24
68127;BMP180;54931;52.098;21.006;2022-07-11T00:57:00;100187.00;;;10.20
68127;BMP180;54931;52.098;21.006;2022-07-11T00:59:30;100186.40;;;10.20
68127;BMP180;54931;52.098;21.006;2022-07-11T01:01:57;100186.00;;;10.20
68127;BMP180;54931;52.098;21.006;2022-07-11T01:04:24;100188.00;;;10.20
68127;BMP180;54931;52.098;21.006;2022-07-11T01:06:52;100189.20;;;10.18
68127;BMP180;54931;52.098;21.006;2022-07-11T01:09:19;100188.20;;;10.10
68127;BMP180;54931;52.098;21.006;2022-07-11T01:12:08;100187.40;;;10.10
68127;BMP180;54931;52.098;21.006;2022-07-11T01:14:36;100184.40;;;10.10
68127;BMP180;54931;52.098;21.006;2022-07-11T01:17:04;100187.40;;;10.10
68127;BMP180;54931;52.098;21.006;2022-07-11T01:19:31;100192.20;;;10.10
68127;BMP180;54931;52.098;21.006;2022-07-11T01:22:03;100196.60;;;10.10
68127;BMP180;54931;52.098;21.006;2022-07-11T01:24:31;100189.00;;;10.10
68127;BMP180;54931;52.098;21.006;2022-07-11T01:27:00;100193.40;;;10.10
68127;BMP180;54931;52.098;21.006;2022-07-11T01:29:28;100196.80;;;10.10
68127;BMP180;54931;52.098;21.006;2022-07-11T01:31:55;100193.00;;;10.10
68127;BMP180;54931;52.098;21.006;2022-07-11T01:34:22;100188.40;;;10.10
68127;BMP180;54931;52.098;21.006;2022-07-11T01:36:49;100185.40;;;10.10
68127;BMP180;54931;52.098;21.006;2022-07-11T01:39:16;100185.00;;;10.10
68127;BMP180;54931;52.098;21.006;2022-07-11T01:41:44;100182.60;;;10.10
68127;BMP180;54931;52.098;21.006;2022-07-11T01:44:11;100180.40;;;10.00
68127;BMP180;54931;52.098;21.006;2022-07-11T01:46:38;100182.00;;;10.00
68127;BMP180;54931;52.098;21.006;2022-07-11T01:49:05;100182.40;;;10.00
68127;BMP180;54931;52.098;21.006;2022-07-11T01:51:34;100183.80;;;10.00
68127;BMP180;54931;52.098;21.006;2022-07-11T01:54:01;100179.20;;;10.06
68127;BMP180;54931;52.098;21.006;2022-07-11T01:56:28;100173.80;;;10.10
68127;BMP180;54931;52.098;21.006;2022-07-11T01:58:56;100171.00;;;10.04
68127;BMP180;54931;52.098;21.006;2022-07-11T02:01:23;100168.40;;;10.00
68127;BMP180;54931;52.098;21.006;2022-07-11T02:03:52;100160.80;;;10.00
68127;BMP180;54931;52.098;21.006;2022-07-11T02:06:19;100162.00;;;10.00
68127;BMP180;54931;52.098;21.006;2022-07-11T02:08:46;100158.80;;;10.00
68127;BMP180;54931;52.098;21.006;2022-07-11T02:11:13;100162.00;;;10.00
68127;BMP180;54931;52.098;21.006;2022-07-11T02:13:40;100160.40;;;10.00
68127;BMP180;54931;52.098;21.006;2022-07-11T02:16:08;100162.60;;;10.04
68127;BMP180;54931;52.098;21.006;2022-07-11T02:18:35;100164.60;;;10.04
68127;BMP180;54931;52.098;21.006;2022-07-11T02:21:03;100162.00;;;10.06
68127;BMP180;54931;52.098;21.006;2022-07-11T02:23:30;100166.20;;;10.00
68127;BMP180;54931;52.098;21.006;2022-07-11T02:25:57;100171.60;;;9.98
68127;BMP180;54931;52.098;21.006;2022-07-11T02:28:24;100172.60;;;9.98
68127;BMP180;54931;52.098;21.006;2022-07-11T02:30:52;100171.20;;;10.00
68127;BMP180;54931;52.098;21.006;2022-07-11T02:33:19;100169.80;;;10.00
68127;BMP180;54931;52.098;21.006;2022-07-11T02:35:46;100172.00;;;10.00
68127;BMP180;54931;52.098;21.006;2022-07-11T02:38:14;100167.60;;;10.00
68127;BMP180;54931;52.098;21.006;2022-07-11T02:40:42;100167.00;;;10.00
68127;BMP180;54931;52.098;21.006;2022-07-11T02:43:11;100163.80;;;10.02
68127;BMP180;54931;52.098;21.006;2022-07-11T02:45:39;100163.20;;;10.10
68127;BMP180;54931;52.098;21.006;2022-07-11T02:48:06;100167.00;;;10.10
68127;BMP180;54931;52.098;21.006;2022-07-11T02:50:33;100168.40;;;10.10
68127;BMP180;54931;52.098;21.006;2022-07-11T02:53:00;100176.00;;;10.10
68127;BMP180;54931;52.098;21.006;2022-07-11T02:55:28;100176.40;;;10.10
68127;BMP180;54931;52.098;21.006;2022-07-11T02:57:55;100178.60;;;10.16
68127;BMP180;54931;52.098;21.006;2022-07-11T03:00:22;100179.00;;;10.20
68127;BMP180;54931;52.098;21.006;2022-07-11T03:02:49;100181.60;;;10.24
68127;BMP180;54931;52.098;21.006;2022-07-11T03:05:17;100183.20;;;10.30
68127;BMP180;54931;52.098;21.006;2022-07-11T03:07:44;100177.40;;;10.22
68127;BMP180;54931;52.098;21.006;2022-07-11T03:10:12;100180.00;;;10.30
68127;BMP180;54931;52.098;21.006;2022-07-11T03:12:39;100176.80;;;10.30
68127;BMP180;54931;52.098;21.006;2022-07-11T03:15:08;100177.60;;;10.40
68127;BMP180;54931;52.098;21.006;2022-07-11T03:17:36;100179.20;;;10.40
68127;BMP180;54931;52.098;21.006;2022-07-11T03:20:05;100185.60;;;10.50
68127;BMP180;54931;52.098;21.006;2022-07-11T03:22:32;100184.80;;;10.60
68127;BMP180;54931;52.098;21.006;2022-07-11T03:25:00;100178.00;;;10.60
68127;BMP180;54931;52.098;21.006;2022-07-11T03:27:27;100178.20;;;10.60
68127;BMP180;54931;52.098;21.006;2022-07-11T03:29:56;100175.20;;;10.70
68127;BMP180;54931;52.098;21.006;2022-07-11T03:32:24;100175.00;;;10.86
68127;BMP180;54931;52.098;21.006;2022-07-11T03:34:51;100176.20;;;11.00
68127;BMP180;54931;52.098;21.006;2022-07-11T03:37:37;100182.20;;;11.10
68127;BMP180;54931;52.098;21.006;2022-07-11T03:40:05;100184.40;;;11.20
68127;BMP180;54931;52.098;21.006;2022-07-11T03:42:32;100187.40;;;11.30
68127;BMP180;54931;52.098;21.006;2022-07-11T03:45:00;100190.40;;;11.40
68127;BMP180;54931;52.098;21.006;2022-07-11T03:47:27;100191.80;;;11.50
68127;BMP180;54931;52.098;21.006;2022-07-11T03:49:55;100189.60;;;11.60
68127;BMP180;54931;52.098;21.006;2022-07-11T03:52:22;100184.60;;;11.74
68127;BMP180;54931;52.098;21.006;2022-07-11T03:54:49;100191.40;;;11.80
68127;BMP180;54931;52.098;21.006;2022-07-11T03:57:16;100193.40;;;11.88
68127;BMP180;54931;52.098;21.006;2022-07-11T03:59:43;100190.20;;;11.90
68127;BMP180;54931;52.098;21.006;2022-07-11T04:02:13;100191.60;;;11.90
68127;BMP180;54931;52.098;21.006;2022-07-11T04:04:40;100198.80;;;11.90
68127;BMP180;54931;52.098;21.006;2022-07-11T04:07:07;100195.80;;;12.00
68127;BMP180;54931;52.098;21.006;2022-07-11T04:09:34;100191.60;;;12.00
68127;BMP180;54931;52.098;21.006;2022-07-11T04:12:02;100192.60;;;12.10
68127;BMP180;54931;52.098;21.006;2022-07-11T04:14:29;100196.20;;;12.10
68127;BMP180;54931;52.098;21.006;2022-07-11T04:16:56;100194.20;;;12.10
68127;BMP180;54931;52.098;21.006;2022-07-11T04:19:23;100191.00;;;12.20
68127;BMP180;54931;52.098;21.006;2022-07-11T04:21:50;100196.80;;;12.30
68127;BMP180;54931;52.098;21.006;2022-07-11T04:24:18;100197.20;;;12.44
68127;BMP180;54931;52.098;21.006;2022-07-11T04:26:45;100200.40;;;12.60
68127;BMP180;54931;52.098;21.006;2022-07-11T04:29:12;100198.00;;;12.80
68127;BMP180;54931;52.098;21.006;2022-07-11T04:31:40;100193.80;;;12.90
68127;BMP180;54931;52.098;21.006;2022-07-11T04:34:07;100192.60;;;13.00
68127;BMP180;54931;52.098;21.006;2022-07-11T04:36:34;100186.00;;;13.18
68127;BMP180;54931;52.098;21.006;2022-07-11T04:39:02;100180.60;;;13.30
68127;BMP180;54931;52.098;21.006;2022-07-11T04:41:29;100177.20;;;13.40
68127;BMP180;54931;52.098;21.006;2022-07-11T04:43:56;100167.80;;;13.48
68127;BMP180;54931;52.098;21.006;2022-07-11T04:46:23;100170.80;;;13.50
68127;BMP180;54931;52.098;21.006;2022-07-11T04:48:51;100170.80;;;13.50
68127;BMP180;54931;52.098;21.006;2022-07-11T04:51:18;100175.80;;;13.50
68127;BMP180;54931;52.098;21.006;2022-07-11T04:53:45;100170.00;;;13.40
68127;BMP180;54931;52.098;21.006;2022-07-11T04:56:13;100167.80;;;13.40
68127;BMP180;54931;52.098;21.006;2022-07-11T04:58:41;100169.00;;;13.40
68127;BMP180;54931;52.098;21.006;2022-07-11T05:01:09;100164.60;;;13.40
68127;BMP180;54931;52.098;21.006;2022-07-11T05:03:36;100155.60;;;13.40
68127;BMP180;54931;52.098;21.006;2022-07-11T05:06:05;100159.80;;;13.30
68127;BMP180;54931;52.098;21.006;2022-07-11T05:08:33;100159.00;;;13.20
68127;BMP180;54931;52.098;21.006;2022-07-11T05:11:04;100158.20;;;13.10
68127;BMP180;54931;52.098;21.006;2022-07-11T05:13:32;100157.20;;;13.10
68127;BMP180;54931;52.098;21.006;2022-07-11T05:15:59;100154.60;;;13.10
68127;BMP180;54931;52.098;21.006;2022-07-11T05:18:26;100158.80;;;13.10
68127;BMP180;54931;52.098;21.006;2022-07-11T05:20:53;100164.40;;;13.10
68127;BMP180;54931;52.098;21.006;2022-07-11T05:23:21;100171.60;;;13.10
68127;BMP180;54931;52.098;21.006;2022-07-11T05:25:48;100171.60;;;13.10
68127;BMP180;54931;52.098;21.006;2022-07-11T05:28:16;100179.40;;;13.16
68127;BMP180;54931;52.098;21.006;2022-07-11T05:30:43;100190.60;;;13.10
68127;BMP180;54931;52.098;21.006;2022-07-11T05:33:10;100193.40;;;13.00
68127;BMP180;54931;52.098;21.006;2022-07-11T05:35:37;100195.00;;;12.90
68127;BMP180;54931;52.098;21.006;2022-07-11T05:38:04;100200.40;;;12.84
68127;BMP180;54931;52.098;21.006;2022-07-11T05:40:31;100196.00;;;12.80
68127;BMP180;54931;52.098;21.006;2022-07-11T05:42:59;100203.80;;;12.90
68127;BMP180;54931;52.098;21.006;2022-07-11T05:45:27;100210.40;;;12.80
68127;BMP180;54931;52.098;21.006;2022-07-11T05:47:54;100208.20;;;12.80
68127;BMP180;54931;52.098;21.006;2022-07-11T05:50:22;100206.60;;;12.86
68127;BMP180;54931;52.098;21.006;2022-07-11T05:52:49;100209.80;;;12.92
68127;BMP180;54931;52.098;21.006;2022-07-11T05:55:16;100203.40;;;13.02
68127;BMP180;54931;52.098;21.006;2022-07-11T05:57:43;100208.00;;;13.10
68127;BMP180;54931;52.098;21.006;2022-07-11T06:00:12;100209.60;;;13.10
68127;BMP180;54931;52.098;21.006;2022-07-11T06:02:40;100209.80;;;13.10
68127;BMP180;54931;52.098;21.006;2022-07-11T06:05:07;100218.00;;;13.10
68127;BMP180;54931;52.098;21.006;2022-07-11T06:07:35;100224.20;;;13.10
68127;BMP180;54931;52.098;21.006;2022-07-11T06:10:21;100219.80;;;13.10
68127;BMP180;54931;52.098;21.006;2022-07-11T06:12:48;100212.80;;;13.00
68127;BMP180;54931;52.098;21.006;2022-07-11T06:15:16;100212.00;;;12.90
68127;BMP180;54931;52.098;21.006;2022-07-11T06:17:43;100214.20;;;12.90
68127;BMP180;54931;52.098;21.006;2022-07-11T06:20:12;100222.40;;;12.96
68127;BMP180;54931;52.098;21.006;2022-07-11T06:22:39;100220.80;;;12.90
68127;BMP180;54931;52.098;21.006;2022-07-11T06:25:07;100229.40;;;12.90
68127;BMP180;54931;52.098;21.006;2022-07-11T06:27:36;100226.20;;;12.90
68127;BMP180;54931;52.098;21.006;2022-07-11T06:30:04;100222.60;;;12.90
68127;BMP180;54931;52.098;21.006;2022-07-11T06:32:31;100220.00;;;12.90
68127;BMP180;54931;52.098;21.006;2022-07-11T06:34:58;100222.00;;;12.90
68127;BMP180;54931;52.098;21.006;2022-07-11T06:37:26;100224.00;;;13.00
68127;BMP180;54931;52.098;21.006;2022-07-11T06:39:53;100228.00;;;13.10
68127;BMP180;54931;52.098;21.006;2022-07-11T06:42:20;100228.00;;;13.16
68127;BMP180;54931;52.098;21.006;2022-07-11T06:44:47;100228.80;;;13.14
68127;BMP180;54931;52.098;21.006;2022-07-11T06:47:14;100229.20;;;13.00
68127;BMP180;54931;52.098;21.006;2022-07-11T06:49:42;100226.60;;;12.90
68127;BMP180;54931;52.098;21.006;2022-07-11T06:52:09;100229.60;;;12.80
68127;BMP180;54931;52.098;21.006;2022-07-11T06:54:36;100223.80;;;12.80
68127;BMP180;54931;52.098;21.006;2022-07-11T06:57:04;100223.00;;;12.80
68127;BMP180;54931;52.098;21.006;2022-07-11T06:59:31;100219.80;;;12.80
68127;BMP180;54931;52.098;21.006;2022-07-11T07:01:58;100222.20;;;12.74
68127;BMP180;54931;52.098;21.006;2022-07-11T07:04:26;100220.40;;;12.80
68127;BMP180;54931;52.098;21.006;2022-07-11T07:06:53;100222.20;;;12.80
68127;BMP180;54931;52.098;21.006;2022-07-11T07:09:21;100226.00;;;12.72
68127;BMP180;54931;52.098;21.006;2022-07-11T07:11:48;100220.00;;;12.70
68127;BMP180;54931;52.098;21.006;2022-07-11T07:14:15;100222.60;;;12.70
68127;BMP180;54931;52.098;21.006;2022-07-11T07:16:42;100225.60;;;12.70
68127;BMP180;54931;52.098;21.006;2022-07-11T07:19:09;100224.60;;;12.70
68127;BMP180;54931;52.098;21.006;2022-07-11T07:21:37;100229.00;;;12.70
68127;BMP180;54931;52.098;21.006;2022-07-11T07:24:05;100223.60;;;12.70
68127;BMP180;54931;52.098;21.006;2022-07-11T07:26:33;100224.80;;;12.70
68127;BMP180;54931;52.098;21.006;2022-07-11T07:29:00;100224.00;;;12.74
68127;BMP180;54931;52.098;21.006;2022-07-11T07:31:27;100224.40;;;12.80
68127;BMP180;54931;52.098;21.006;2022-07-11T07:33:55;100223.80;;;12.90
68127;BMP180;54931;52.098;21.006;2022-07-11T07:36:22;100227.20;;;12.90
68127;BMP180;54931;52.098;21.006;2022-07-11T07:38:49;100224.80;;;13.00
68127;BMP180;54931;52.098;21.006;2022-07-11T07:41:17;100226.60;;;13.06
68127;BMP180;54931;52.098;21.006;2022-07-11T07:43:44;100219.60;;;13.10
68127;BMP180;54931;52.098;21.006;2022-07-11T07:46:12;100224.40;;;13.24
68127;BMP180;54931;52.098;21.006;2022-07-11T07:48:39;100220.40;;;13.38
68127;BMP180;54931;52.098;21.006;2022-07-11T07:51:07;100221.80;;;13.56
68127;BMP180;54931;52.098;21.006;2022-07-11T07:53:34;100216.40;;;13.68
68127;BMP180;54931;52.098;21.006;2022-07-11T07:56:02;100218.20;;;13.70
68127;BMP180;54931;52.098;21.006;2022-07-11T07:58:29;100213.40;;;13.80
68127;BMP180;54931;52.098;21.006;2022-07-11T08:00:57;100219.40;;;13.92
68127;BMP180;54931;52.098;21.006;2022-07-11T08:03:43;100215.40;;;14.22
68127;BMP180;54931;52.098;21.006;2022-07-11T08:06:10;100216.40;;;14.52
68127;BMP180;54931;52.098;21.006;2022-07-11T08:08:37;100213.00;;;14.80
68127;BMP180;54931;52.098;21.006;2022-07-11T08:11:05;100208.20;;;15.02
68127;BMP180;54931;52.098;21.006;2022-07-11T08:13:32;100202.20;;;15.30
68127;BMP180;54931;52.098;21.006;2022-07-11T08:15:59;100200.40;;;15.60
68127;BMP180;54931;52.098;21.006;2022-07-11T08:18:26;100200.80;;;15.76
68127;BMP180;54931;52.098;21.006;2022-07-11T08:20:55;100204.40;;;15.92
68127;BMP180;54931;52.098;21.006;2022-07-11T08:23:25;100194.20;;;16.30
68127;BMP180;54931;52.098;21.006;2022-07-11T08:25:52;100198.00;;;16.66
68127;BMP180;54931;52.098;21.006;2022-07-11T08:28:20;100193.40;;;17.00
68127;BMP180;54931;52.098;21.006;2022-07-11T08:30:47;100195.40;;;17.10
68127;BMP180;54931;52.098;21.006;2022-07-11T08:33:14;100195.40;;;17.10
68127;BMP180;54931;52.098;21.006;2022-07-11T08:35:42;100187.60;;;17.30
68127;BMP180;54931;52.098;21.006;2022-07-11T08:38:09;100189.00;;;17.54
68127;BMP180;54931;52.098;21.006;2022-07-11T08:40:42;100184.40;;;18.00
68127;BMP180;54931;52.098;21.006;2022-07-11T08:43:15;100183.40;;;17.90
68127;BMP180;54931;52.098;21.006;2022-07-11T08:45:43;100186.60;;;17.80
68127;BMP180;54931;52.098;21.006;2022-07-11T08:48:11;100180.20;;;17.60
68127;BMP180;54931;52.098;21.006;2022-07-11T08:50:39;100183.60;;;17.28
68127;BMP180;54931;52.098;21.006;2022-07-11T08:53:07;100182.80;;;17.18
68127;BMP180;54931;52.098;21.006;2022-07-11T08:55:35;100183.00;;;17.64
68127;BMP180;54931;52.098;21.006;2022-07-11T08:58:03;100184.00;;;18.20
68127;BMP180;54931;52.098;21.006;2022-07-11T09:00:31;100187.20;;;18.34
68127;BMP180;54931;52.098;21.006;2022-07-11T09:03:00;100187.20;;;18.78
68127;BMP180;54931;52.098;21.006;2022-07-11T09:05:31;100188.60;;;19.20
68127;BMP180;54931;52.098;21.006;2022-07-11T09:07:58;100187.20;;;19.16
68127;BMP180;54931;52.098;21.006;2022-07-11T09:10:26;100184.80;;;19.08
68127;BMP180;54931;52.098;21.006;2022-07-11T09:13:09;100193.00;;;19.30
68127;BMP180;54931;52.098;21.006;2022-07-11T09:15:45;100189.60;;;18.98
68127;BMP180;54931;52.098;21.006;2022-07-11T09:18:36;100198.00;;;18.70
68127;BMP180;54931;52.098;21.006;2022-07-11T09:21:10;100191.60;;;18.60
68127;BMP180;54931;52.098;21.006;2022-07-11T09:24:00;100195.00;;;18.28
68127;BMP180;54931;52.098;21.006;2022-07-11T09:26:49;100186.60;;;18.58
68127;BMP180;54931;52.098;21.006;2022-07-11T09:29:22;100183.80;;;19.06
68127;BMP180;54931;52.098;21.006;2022-07-11T09:31:52;100192.80;;;19.38
68127;BMP180;54931;52.098;21.006;2022-07-11T09:34:22;100198.00;;;19.58
68127;BMP180;54931;52.098;21.006;2022-07-11T09:36:56;100195.20;;;19.90
68127;BMP180;54931;52.098;21.006;2022-07-11T09:39:27;100199.80;;;19.80
68127;BMP180;54931;52.098;21.006;2022-07-11T09:41:56;100198.20;;;19.60
68127;BMP180;54931;52.098;21.006;2022-07-11T09:44:29;100201.20;;;19.30
68127;BMP180;54931;52.098;21.006;2022-07-11T09:47:57;100196.60;;;19.00
68127;BMP180;54931;52.098;21.006;2022-07-11T09:50:29;100199.40;;;18.68
68127;BMP180;54931;52.098;21.006;2022-07-11T09:53:06;100197.40;;;18.60
68127;BMP180;54931;52.098;21.006;2022-07-11T09:55:39;100197.60;;;18.60
68127;BMP180;54931;52.098;21.006;2022-07-11T09:58:15;100200.00;;;18.50
68127;BMP180;54931;52.098;21.006;2022-07-11T10:00:44;100198.40;;;18.40
68127;BMP180;54931;52.098;21.006;2022-07-11T10:03:13;100198.00;;;18.32
68127;BMP180;54931;52.098;21.006;2022-07-11T10:05:41;100196.60;;;18.20
68127;BMP180;54931;52.098;21.006;2022-07-11T10:08:09;100190.40;;;17.94
68127;BMP180;54931;52.098;21.006;2022-07-11T10:10:37;100197.40;;;17.74
68127;BMP180;54931;52.098;21.006;2022-07-11T10:13:05;100192.20;;;17.60
68127;BMP180;54931;52.098;21.006;2022-07-11T10:15:35;100189.00;;;17.50
68127;BMP180;54931;52.098;21.006;2022-07-11T10:18:31;100190.80;;;17.30
68127;BMP180;54931;52.098;21.006;2022-07-11T10:21:11;100188.00;;;17.20
68127;BMP180;54931;52.098;21.006;2022-07-11T10:23:55;100181.60;;;17.72
68127;BMP180;54931;52.098;21.006;2022-07-11T10:26:55;100180.00;;;18.54
68127;BMP180;54931;52.098;21.006;2022-07-11T10:29:50;100180.80;;;19.34
68127;BMP180;54931;52.098;21.006;2022-07-11T10:32:19;100184.80;;;19.70
68127;BMP180;54931;52.098;21.006;2022-07-11T10:35:11;100184.60;;;19.60
68127;BMP180;54931;52.098;21.006;2022-07-11T10:37:50;100193.00;;;19.60
68127;BMP180;54931;52.098;21.006;2022-07-11T10:40:55;100198.80;;;19.40
68127;BMP180;54931;52.098;21.006;2022-07-11T10:43:37;100202.00;;;19.30
68127;BMP180;54931;52.098;21.006;2022-07-11T10:46:20;100206.40;;;19.20
68127;BMP180;54931;52.098;21.006;2022-07-11T10:51:59;100214.60;;;19.08
68127;BMP180;54931;52.098;21.006;2022-07-11T10:57:46;100234.80;;;17.62
68127;BMP180;54931;52.098;21.006;2022-07-11T11:00:20;100229.40;;;16.78
68127;BMP180;54931;52.098;21.006;2022-07-11T11:03:09;100232.80;;;16.32
68127;BMP180;54931;52.098;21.006;2022-07-11T11:05:48;100229.60;;;15.86
68127;BMP180;54931;52.098;21.006;2022-07-11T11:16:43;100222.20;;;15.30
68127;BMP180;54931;52.098;21.006;2022-07-11T11:22:17;100218.40;;;15.20
68127;BMP180;54931;52.098;21.006;2022-07-11T11:24:51;100215.80;;;15.30
68127;BMP180;54931;52.098;21.006;2022-07-11T11:27:24;100210.40;;;15.40
68127;BMP180;54931;52.098;21.006;2022-07-11T11:29:55;100218.60;;;15.50
68127;BMP180;54931;52.098;21.006;2022-07-11T11:32:29;100229.20;;;15.50
68127;BMP180;54931;52.098;21.006;2022-07-11T11:35:02;100230.20;;;15.52
68127;BMP180;54931;52.098;21.006;2022-07-11T11:37:31;100231.80;;;15.62
68127;BMP180;54931;52.098;21.006;2022-07-11T11:40:00;100227.40;;;15.80
68127;BMP180;54931;52.098;21.006;2022-07-11T11:42:29;100228.00;;;15.80
68127;BMP180;54931;52.098;21.006;2022-07-11T11:45:05;100220.60;;;15.84
68127;BMP180;54931;52.098;21.006;2022-07-11T11:47:47;100213.60;;;15.90
68127;BMP180;54931;52.098;21.006;2022-07-11T11:50:15;100214.40;;;16.00
68127;BMP180;54931;52.098;21.006;2022-07-11T11:52:44;100205.20;;;16.00
68127;BMP180;54931;52.098;21.006;2022-07-11T11:55:12;100207.20;;;16.08
68127;BMP180;54931;52.098;21.006;2022-07-11T11:57:39;100203.20;;;16.30
68127;BMP180;54931;52.098;21.006;2022-07-11T12:00:27;100204.80;;;16.72
68127;BMP180;54931;52.098;21.006;2022-07-11T12:02:57;100204.00;;;17.20
68127;BMP180;54931;52.098;21.006;2022-07-11T12:05:24;100199.20;;;17.50
68127;BMP180;54931;52.098;21.006;2022-07-11T12:07:52;100203.40;;;17.68
68127;BMP180;54931;52.098;21.006;2022-07-11T12:10:20;100192.40;;;17.80
68127;BMP180;54931;52.098;21.006;2022-07-11T12:12:47;100196.20;;;17.90
68127;BMP180;54931;52.098;21.006;2022-07-11T12:15:41;100196.60;;;18.00
68127;BMP180;54931;52.098;21.006;2022-07-11T12:18:27;100199.60;;;18.22
68127;BMP180;54931;52.098;21.006;2022-07-11T12:20:55;100197.40;;;18.50
68127;BMP180;54931;52.098;21.006;2022-07-11T12:23:23;100199.00;;;18.60
68127;BMP180;54931;52.098;21.006;2022-07-11T12:25:51;100198.20;;;18.80
68127;BMP180;54931;52.098;21.006;2022-07-11T12:28:19;100202.20;;;19.00
68127;BMP180;54931;52.098;21.006;2022-07-11T12:30:57;100208.60;;;18.90
68127;BMP180;54931;52.098;21.006;2022-07-11T12:33:25;100215.60;;;19.00
68127;BMP180;54931;52.098;21.006;2022-07-11T12:35:59;100220.20;;;19.12
68127;BMP180;54931;52.098;21.006;2022-07-11T12:38:50;100223.80;;;19.28
68127;BMP180;54931;52.098;21.006;2022-07-11T12:41:19;100216.80;;;19.54
68127;BMP180;54931;52.098;21.006;2022-07-11T12:43:50;100220.20;;;19.80
68127;BMP180;54931;52.098;21.006;2022-07-11T12:46:38;100221.80;;;20.00
68127;BMP180;54931;52.098;21.006;2022-07-11T12:49:09;100220.00;;;20.20
68127;BMP180;54931;52.098;21.006;2022-07-11T12:51:40;100226.20;;;20.22
68127;BMP180;54931;52.098;21.006;2022-07-11T12:54:14;100238.00;;;19.90
68127;BMP180;54931;52.098;21.006;2022-07-11T12:56:56;100253.20;;;19.54
68127;BMP180;54931;52.098;21.006;2022-07-11T12:59:31;100259.80;;;18.96
68127;BMP180;54931;52.098;21.006;2022-07-11T13:02:02;100272.40;;;18.40
68127;BMP180;54931;52.098;21.006;2022-07-11T13:04:50;100278.60;;;17.56
68127;BMP180;54931;52.098;21.006;2022-07-11T13:10:28;100292.40;;;16.10
68127;BMP180;54931;52.098;21.006;2022-07-11T13:13:14;100294.40;;;15.54
68127;BMP180;54931;52.098;21.006;2022-07-11T13:15:42;100300.80;;;15.20
68127;BMP180;54931;52.098;21.006;2022-07-11T13:18:09;100305.00;;;14.90
68127;BMP180;54931;52.098;21.006;2022-07-11T13:20:36;100307.60;;;14.68
68127;BMP180;54931;52.098;21.006;2022-07-11T13:23:05;100308.80;;;14.40
68127;BMP180;54931;52.098;21.006;2022-07-11T13:25:34;100309.60;;;14.30
68127;BMP180;54931;52.098;21.006;2022-07-11T13:28:01;100307.00;;;14.20
68127;BMP180;54931;52.098;21.006;2022-07-11T13:30:28;100303.40;;;14.20
68127;BMP180;54931;52.098;21.006;2022-07-11T13:32:58;100300.20;;;14.10
68127;BMP180;54931;52.098;21.006;2022-07-11T13:35:26;100297.20;;;14.00
68127;BMP180;54931;52.098;21.006;2022-07-11T13:37:53;100291.80;;;13.90
68127;BMP180;54931;52.098;21.006;2022-07-11T13:40:22;100285.80;;;13.82
68127;BMP180;54931;52.098;21.006;2022-07-11T13:42:50;100283.20;;;13.74
68127;BMP180;54931;52.098;21.006;2022-07-11T13:45:22;100283.80;;;13.60
68127;BMP180;54931;52.098;21.006;2022-07-11T13:47:50;100279.40;;;13.50
68127;BMP180;54931;52.098;21.006;2022-07-11T13:50:18;100276.60;;;13.50
68127;BMP180;54931;52.098;21.006;2022-07-11T13:52:49;100271.60;;;13.50
68127;BMP180;54931;52.098;21.006;2022-07-11T13:55:19;100275.80;;;13.50
68127;BMP180;54931;52.098;21.006;2022-07-11T13:57:49;100276.00;;;13.42
68127;BMP180;54931;52.098;21.006;2022-07-11T14:00:20;100273.20;;;13.46
68127;BMP180;54931;52.098;21.006;2022-07-11T14:02:48;100268.20;;;13.40
68127;BMP180;54931;52.098;21.006;2022-07-11T14:05:17;100265.20;;;13.40
68127;BMP180;54931;52.098;21.006;2022-07-11T14:07:47;100262.80;;;13.40
68127;BMP180;54931;52.098;21.006;2022-07-11T14:10:15;100266.80;;;13.50
68127;BMP180;54931;52.098;21.006;2022-07-11T14:12:42;100265.40;;;13.58
68127;BMP180;54931;52.098;21.006;2022-07-11T14:15:10;100266.00;;;13.70
68127;BMP180;54931;52.098;21.006;2022-07-11T14:17:38;100264.60;;;13.70
68127;BMP180;54931;52.098;21.006;2022-07-11T14:20:06;100265.60;;;13.78